This is the latest recevied weather packets stored in our database for station/object OE-11051. If no packets are shown the sender has not sent any weather packets the latest 10 day(s).
| Time | Temp. | Humidity | Pressure | Rain* | Wind** | Luminosity | Snow |
|---|---|---|---|---|---|---|---|
| 1787784907 | 20° C | 75% | 1015.5 hPa | 0 mm | - | 0 W/m² | - |
| 1787784080 | 20° C | 76% | 1015.5 hPa | 0 mm | - | 0 W/m² | - |
| 1787783707 | 20° C | 76% | 1015.6 hPa | 0 mm | - | 0 W/m² | - |
| 1787783106 | 20° C | 76% | 1015.8 hPa | 0 mm | - | 0 W/m² | - |
| 1787782281 | 20.56° C | 75% | 1015.5 hPa | 0 mm | - | 0 W/m² | - |
| 1787781907 | 20.56° C | 74% | 1015.7 hPa | 0 mm | - | 0 W/m² | - |
| 1787781306 | 20.56° C | 77% | 1015.7 hPa | 0 mm | - | 0 W/m² | - |
| 1787780480 | 19.44° C | 79% | 1016 hPa | 0 mm | - | 0 W/m² | - |
| 1787780107 | 20.56° C | 76% | 1015.9 hPa | 0 mm | - | 0 W/m² | - |
| 1787779506 | 21.11° C | 74% | 1015.8 hPa | 0 mm | - | 0 W/m² | - |
| 1787778680 | 21.11° C | 73% | 1015.7 hPa | 0 mm | - | 0 W/m² | - |
| 1787778313 | 21.11° C | 72% | 1015.7 hPa | 0 mm | - | 0 W/m² | - |
| 1787777707 | 21.67° C | 72% | 1015.7 hPa | 0 mm | - | 0 W/m² | - |
| 1787776880 | 21.67° C | 71% | 1015.5 hPa | 0 mm | - | 0 W/m² | - |
| 1787776506 | 21.67° C | 70% | 1015.5 hPa | 0 mm | - | 0 W/m² | - |
| 1787775907 | 21.67° C | 69% | 1015.6 hPa | 0 mm | - | 0 W/m² | - |
| 1787775081 | 22.22° C | 68% | 1015.7 hPa | 0 mm | - | 0 W/m² | - |
| 1787774707 | 22.22° C | 67% | 1015.6 hPa | 0 mm | - | 0 W/m² | - |
| 1787774107 | 22.22° C | 66% | 1015.7 hPa | 0 mm | - | 0 W/m² | - |
| 1787773280 | 22.78° C | 65% | 1015.7 hPa | 0 mm | - | 0 W/m² | - |
| 1787772907 | 22.78° C | 64% | 1015.6 hPa | 0 mm | - | 0 W/m² | - |
| 1787772307 | 22.78° C | 64% | 1015.6 hPa | 0 mm | - | 0 W/m² | - |
| 1787771480 | 23.33° C | 62% | 1015.4 hPa | 0 mm | - | 0 W/m² | - |
| 1787771106 | 23.33° C | 61% | 1015.5 hPa | 0 mm | - | 0 W/m² | - |
| 1787770507 | 23.89° C | 59% | 1015.3 hPa | 0 mm | - | 0 W/m² | - |
* Rain latest hour (hover to see other rain measurements)
** Current wind speed in m/s (hover to see current wind gust speed)